Decoded Metar for KSMN (SALMON/LEMHI in ID, USA) (IATA:SMN) | Meteo·Mobile Aviation Weather
aviador You're here:

KSMN Decoded Metar

SALMON/LEMHI in ID, USA
Report Time2019-06-27 06:56:00
UTC Time2019-06-27 08:01:43
Flight Rules vfr VFR
WindCalm
Visibility9999 m
Phenomena:N/A
Clouds:N/A
Expected CloudBase > 2,800 ft AGL from Temp-Dew spread
CeilingNone
Temp11°C (ISA +4)
Dew Point04°C (62% RH)
AAT9.7°C
QNH1011 hPa
Density Alt4,708 ft
Elevation4,045 ft
Report Wrong Elevation
Raw Report
KSMN 270656Z AUTO 00000KT 10SM CLR 11/04 A2986 RMK AO2 SLP096
T01110039 402890072=

Extra information for KSMN:More info

Metar Taf Metar & Taf Last 4 Metars F.Rules Stats Wind Profile Meteogram Temp Stats Airport Information Weather charts Add Link Nearby VenuesMetar ALERT Operation Metar Decoded Social comments

AIRNAV info for KSMN